Goose Prairie, WA

06:41 AM PDT on Maj 28, 2015 (GMT -0700)
Granite Creek | | Change Station
CLOSE
Current Station
Personal Weather Stations
Location: Upper Kittitas County, WA
Elevation: 2835 ft
Nearby Weather Stations

Elev 2835 ft 47.16 °N, 121.09 °W | Updated 11 minutes ago

Klart
Klart
50.5 °F
Feels Like 50.5 °F
N
0.0
Vind Växlande Vind from S/SV
Gusts 0.0 miles/tim

Idag
High -- | Low -- °F
--% Chance of Precip.
Yesterday
High -- | Low -- °F
Precip. -- tum
5:17 AM 8:48 PM
Andra kvarteret, 76% visible
Lufttryck 30.01 tum
Sikt 10.0 miles
Molnigt Klart
Daggpunkt 46 °F
Luftfuktighet 84%
Rainfall 0.00 tum
Snow Depth Not available.
UV 0 out of 12
Pollen 8.60 out of 12
Air Quality Not available.
Flu Activity Sporadic
METAR KELN 281253Z AUTO 05003KT 10SM CLR 11/08 A3004 RMK AO2 SLP163 T01060078

More Conditions Fewer Conditions

Lufttryck 30.01 tum
Sikt 10.0 miles
Molnigt Klart
Daggpunkt 46 °F
Luftfuktighet 84%
Rainfall 0.00 tum
Snow Depth Not available.
UV 0 out of 12
Pollen 8.60 out of 12
Air Quality Not available.
Flu Activity Sporadic
METAR KELN 281253Z AUTO 05003KT 10SM CLR 11/08 A3004 RMK AO2 SLP163 T01060078

More Conditions Fewer Conditions

10-Day Weather Forecast

Almanac

Astronomi

May. 28, 2015 Rise Set
Actual Time
Civil Twilight
Nautical Twilight
Astronomical Twilight
Månen
Length Of Visible Light
Dagens längd
Tomorrow will be .
, % of the Moon is Illuminated

Today's Extremes

State Highs State Lows

Community

WunderPhotos

Upload Photos

1,824,972 photos uploaded!

WunderBlogs® & News

Nearby

Air Quality

  Air Quality AQ Index Pollutant
Not available.

Snödjup

Station Depth Elevation

Earthquake Activity

Stad Distance Mag. Time & Date
Minimum magnitude displayed is 2.5.

Coastal Water Temperatures

Plats Temperatur

Stations

Nearby Weather Stations

Station Location Temp Vindavkylning Daggpunkt Luftfuktighet Vind Precip. Elev Uppdaterad Type